createdAt,value
2018-07-20T00:00:21.462Z,87.05
2018-07-20T00:01:21.500Z,87.67
2018-07-20T00:02:21.534Z,87.82
2018-07-20T00:03:21.570Z,87.72
2018-07-20T00:04:21.605Z,87.67
2018-07-20T00:05:21.642Z,87.76
2018-07-20T00:06:21.678Z,87.29
2018-07-20T00:07:21.715Z,87.57
2018-07-20T00:08:21.750Z,87.72
2018-07-20T00:09:21.785Z,87.62
2018-07-20T00:10:21.821Z,87.92
2018-07-20T00:11:21.858Z,88.20
2018-07-20T00:12:21.894Z,88.01
2018-07-20T00:13:21.928Z,89.07
2018-07-20T00:14:21.965Z,89.64
2018-07-20T00:15:22.002Z,89.22
2018-07-20T00:16:22.037Z,90.08
2018-07-20T00:17:22.074Z,90.84
2018-07-20T00:18:22.109Z,90.75
2018-07-20T00:19:22.145Z,91.04
2018-07-20T00:20:22.181Z,90.94
2018-07-20T00:21:22.217Z,91.28
2018-07-20T00:22:22.252Z,90.46
2018-07-20T00:23:22.288Z,90.66
2018-07-20T00:24:22.328Z,90.37
2018-07-20T00:25:22.358Z,90.75
2018-07-20T00:26:22.395Z,90.94
2018-07-20T00:27:22.437Z,90.56
2018-07-20T00:28:22.467Z,89.98
2018-07-20T00:29:22.502Z,90.08
2018-07-20T00:30:22.587Z,90.27
2018-07-20T00:31:22.574Z,90.27
2018-07-20T00:32:22.611Z,90.37
2018-07-20T00:33:22.645Z,90.37
2018-07-20T00:34:22.682Z,90.27
2018-07-20T00:35:22.716Z,90.27
2018-07-20T00:36:22.755Z,90.17
2018-07-20T00:37:22.788Z,89.89
2018-07-20T00:38:22.824Z,89.40
2018-07-20T00:39:22.859Z,90.27
2018-07-20T00:40:22.896Z,90.27
2018-07-20T00:41:22.930Z,90.84
2018-07-20T00:42:22.969Z,90.27
2018-07-20T00:43:23.002Z,90.27
2018-07-20T00:44:23.043Z,90.17
2018-07-20T00:45:23.072Z,89.89
2018-07-20T00:46:23.109Z,89.89
2018-07-20T00:47:23.145Z,89.69
2018-07-20T00:48:23.181Z,90.46
2018-07-20T00:49:23.215Z,90.17
2018-07-20T00:50:23.252Z,90.37
2018-07-20T00:51:23.288Z,89.69
2018-07-20T00:52:23.323Z,89.60
2018-07-20T00:53:23.360Z,89.31
2018-07-20T00:54:23.394Z,88.93
2018-07-20T00:55:23.429Z,89.12
2018-07-20T00:56:23.466Z,88.93
2018-07-20T00:57:23.500Z,89.40
2018-07-20T00:58:23.538Z,89.40
2018-07-20T00:59:23.571Z,89.40
2018-07-20T01:00:23.609Z,89.60
2018-07-20T01:01:23.644Z,89.79
2018-07-20T01:02:23.680Z,90.08
2018-07-20T01:03:23.715Z,90.08
2018-07-20T01:04:23.751Z,89.89
2018-07-20T01:05:23.813Z,89.31
2018-07-20T01:06:23.823Z,88.93
2018-07-20T01:07:23.858Z,89.50
2018-07-20T01:08:23.894Z,89.40
2018-07-20T01:09:23.927Z,89.22
2018-07-20T01:10:23.965Z,89.89
2018-07-20T01:11:24.002Z,89.60
2018-07-20T01:12:24.036Z,90.17
2018-07-20T01:13:24.071Z,89.40
2018-07-20T01:14:24.105Z,90.08
2018-07-20T01:15:24.148Z,89.22
2018-07-20T01:16:24.178Z,89.89
2018-07-20T01:17:24.213Z,89.60
2018-07-20T01:18:24.249Z,89.79
2018-07-20T01:19:24.283Z,89.98
2018-07-20T01:20:24.320Z,89.89
2018-07-20T01:21:24.357Z,89.40
2018-07-20T01:22:24.390Z,89.40
2018-07-20T01:23:24.426Z,89.89
2018-07-20T01:24:24.461Z,89.22
2018-07-20T01:25:24.496Z,89.89
2018-07-20T01:26:24.532Z,89.98
2018-07-20T01:27:24.568Z,90.17
2018-07-20T01:28:24.603Z,90.08
2018-07-20T01:29:24.639Z,90.56
2018-07-20T01:30:24.676Z,90.46
2018-07-20T01:31:24.710Z,89.89
2018-07-20T01:32:24.748Z,89.79
2018-07-20T01:33:24.782Z,89.98
2018-07-20T01:34:25.070Z,89.98
2018-07-20T01:35:24.852Z,89.79
2018-07-20T01:36:24.888Z,90.37
2018-07-20T01:37:24.921Z,90.08
2018-07-20T01:38:25.160Z,90.17
2018-07-20T01:39:24.994Z,89.89
2018-07-20T01:40:25.031Z,89.89
2018-07-20T01:41:25.064Z,90.75
2018-07-20T01:42:25.100Z,90.22
2018-07-20T01:43:25.136Z,90.52
2018-07-20T01:44:25.195Z,90.90
2018-07-20T01:45:25.206Z,90.80
2018-07-20T01:46:25.243Z,90.42
2018-07-20T01:47:25.277Z,90.90
2018-07-20T01:48:25.314Z,91.28
2018-07-20T01:49:25.347Z,91.57
2018-07-20T01:50:25.382Z,91.76
2018-07-20T01:51:25.418Z,92.14
2018-07-20T01:52:25.477Z,92.14
2018-07-20T01:53:25.488Z,92.05
2018-07-20T01:54:25.523Z,92.05
2018-07-20T01:55:25.559Z,91.96
2018-07-20T01:56:25.595Z,92.24
2018-07-20T01:57:25.632Z,92.14
2018-07-20T01:58:25.666Z,91.47
2018-07-20T01:59:25.701Z,91.47
2018-07-20T02:00:25.736Z,91.76
2018-07-20T02:01:25.770Z,91.86
2018-07-20T02:02:25.806Z,92.24
2018-07-20T02:03:27.384Z,91.47
2018-07-20T02:05:25.911Z,92.43
2018-07-20T02:06:25.947Z,92.91
2018-07-20T02:07:25.983Z,92.24
2018-07-20T02:08:26.018Z,91.96
2018-07-20T02:09:26.053Z,92.63
2018-07-20T02:10:26.088Z,92.63
2018-07-20T02:11:26.124Z,92.24
2018-07-20T02:12:26.158Z,92.53
2018-07-20T02:13:26.193Z,92.24
2018-07-20T02:14:26.231Z,93.10
2018-07-20T02:15:26.264Z,92.33
2018-07-20T02:16:26.300Z,92.72
2018-07-20T02:17:26.335Z,92.63
2018-07-20T02:18:26.369Z,93.20
2018-07-20T02:19:26.405Z,92.53
2018-07-20T02:20:26.440Z,92.63
2018-07-20T02:21:26.479Z,92.33
2018-07-20T02:22:26.510Z,93.30
2018-07-20T02:23:26.547Z,92.33
2018-07-20T02:24:26.582Z,92.63
2018-07-20T02:25:26.615Z,92.63
2018-07-20T02:26:26.651Z,92.72
2018-07-20T02:29:26.760Z,92.43
2018-07-20T02:30:26.792Z,92.33
2018-07-20T02:31:26.827Z,92.24
2018-07-20T02:32:26.864Z,92.43
2018-07-20T02:33:26.902Z,92.82
2018-07-20T02:34:26.935Z,93.39
2018-07-20T02:35:26.968Z,93.20
2018-07-20T02:36:27.003Z,93.30
2018-07-20T02:37:27.059Z,93.01
2018-07-20T02:38:27.098Z,93.59
2018-07-20T02:39:27.118Z,94.16
2018-07-20T02:40:27.143Z,93.97
2018-07-20T02:41:27.178Z,93.97
2018-07-20T02:42:27.213Z,94.26
2018-07-20T02:43:27.249Z,94.98
2018-07-20T02:44:27.283Z,94.69
2018-07-20T02:45:27.319Z,94.83
2018-07-20T02:46:27.353Z,95.21
2018-07-20T02:47:27.391Z,94.69
2018-07-20T02:48:27.423Z,94.83
2018-07-20T02:49:27.458Z,94.26
2018-07-20T02:50:27.519Z,94.21
2018-07-20T02:51:27.552Z,93.87
2018-07-20T02:52:27.571Z,93.97
2018-07-20T02:53:27.600Z,94.07
2018-07-20T02:54:27.645Z,94.21
2018-07-20T02:55:27.673Z,93.20
2018-07-20T02:56:27.704Z,93.54
2018-07-20T02:57:27.762Z,94.02
2018-07-20T02:58:27.774Z,93.92
2018-07-20T02:59:27.807Z,94.40
2018-07-20T03:00:27.845Z,94.59
2018-07-20T03:01:27.878Z,94.69
2018-07-20T03:02:27.913Z,95.65
2018-07-20T03:04:28.007Z,95.46
2018-07-20T03:05:28.246Z,95.17
2018-07-20T03:07:28.089Z,96.22
2018-07-20T03:08:28.125Z,96.22
2018-07-20T03:09:28.158Z,96.13
2018-07-20T03:10:28.194Z,96.42
2018-07-20T03:11:28.231Z,96.42
2018-07-20T03:12:28.264Z,96.51
2018-07-20T03:13:28.322Z,96.32
2018-07-20T03:14:28.357Z,97.09
2018-07-20T03:15:28.368Z,96.13
2018-07-20T03:16:28.403Z,97.09
2018-07-20T03:17:28.438Z,96.89
2018-07-20T03:18:28.472Z,96.70
2018-07-20T03:19:28.509Z,97.09
2018-07-20T03:20:28.542Z,96.32
2018-07-20T03:21:28.577Z,96.51
2018-07-20T03:22:28.612Z,96.42
2018-07-20T03:23:28.647Z,96.22
2018-07-20T03:24:28.681Z,96.70
2018-07-20T03:25:28.716Z,97.28
2018-07-20T03:26:28.751Z,96.13
2018-07-20T03:27:28.785Z,97.19
2018-07-20T03:28:28.820Z,96.99
2018-07-20T03:29:28.859Z,97.09
2018-07-20T03:30:28.891Z,97.09
2018-07-20T03:31:28.926Z,97.38
2018-07-20T03:32:28.962Z,96.22
2018-07-20T03:33:28.995Z,96.22
2018-07-20T03:34:29.032Z,96.03
2018-07-20T03:35:29.065Z,97.28
2018-07-20T03:36:29.100Z,96.61
2018-07-20T03:37:29.133Z,96.51
2018-07-20T03:38:29.170Z,96.32
2018-07-20T03:39:29.204Z,96.03
2018-07-20T03:40:29.239Z,96.32
2018-07-20T03:41:29.293Z,96.03
2018-07-20T03:42:29.309Z,95.60
2018-07-20T03:43:29.344Z,95.70
2018-07-20T03:44:29.378Z,95.46
2018-07-20T03:45:29.414Z,94.98
2018-07-20T03:46:29.448Z,94.79
2018-07-20T03:47:29.483Z,94.79
2018-07-20T03:48:29.519Z,94.69
2018-07-20T03:49:29.553Z,94.83
2018-07-20T03:50:29.588Z,94.83
2018-07-20T03:51:29.623Z,94.88
2018-07-20T03:52:29.660Z,94.98
2018-07-20T03:53:29.692Z,95.46
2018-07-20T03:54:29.728Z,95.12
2018-07-20T03:55:29.763Z,94.93
2018-07-20T03:56:29.798Z,94.83
2018-07-20T03:57:29.834Z,94.93
2018-07-20T03:58:29.868Z,94.26
2018-07-20T03:59:29.903Z,94.93
2018-07-20T04:00:29.938Z,95.03
2018-07-20T04:01:29.973Z,94.74
2018-07-20T04:02:30.042Z,94.74
2018-07-20T04:03:30.043Z,94.64
2018-07-20T04:04:30.078Z,94.16
2018-07-20T04:05:30.112Z,94.35
2018-07-20T04:06:30.146Z,94.64
2018-07-20T04:07:30.183Z,94.93
2018-07-20T04:08:30.218Z,95.75
2018-07-20T04:09:30.252Z,96.22
2018-07-20T04:10:30.288Z,95.94
2018-07-20T04:11:30.324Z,96.22
2018-07-20T04:12:30.358Z,96.27
2018-07-20T04:13:30.418Z,96.42
2018-07-20T04:14:30.428Z,96.70
2018-07-20T04:15:30.466Z,95.94
2018-07-20T04:16:30.498Z,97.28
2018-07-20T04:17:30.533Z,97.38
2018-07-20T04:18:30.568Z,98.05
2018-07-20T04:19:30.603Z,97.86
2018-07-20T04:20:30.638Z,97.66
2018-07-20T04:21:30.673Z,98.05
2018-07-20T04:22:30.710Z,97.86
2018-07-20T04:23:30.746Z,97.95
2018-07-20T04:24:30.779Z,97.66
2018-07-20T04:25:30.815Z,97.56
2018-07-20T04:26:30.848Z,97.38
2018-07-20T04:27:30.884Z,97.09
2018-07-20T04:28:30.918Z,97.19
2018-07-20T04:29:30.952Z,96.99
2018-07-20T04:30:30.988Z,96.47
2018-07-20T04:31:31.024Z,96.22
2018-07-20T04:32:31.059Z,96.08
2018-07-20T04:33:31.094Z,95.50
2018-07-20T04:34:31.128Z,95.41
2018-07-20T04:35:31.165Z,95.55
2018-07-20T04:36:31.236Z,96.27
2018-07-20T04:37:31.233Z,96.13
2018-07-20T04:38:31.597Z,96.51
2018-07-20T04:39:31.303Z,96.32
2018-07-20T04:40:31.339Z,96.22
2018-07-20T04:41:31.374Z,96.42
2018-07-20T04:42:31.409Z,96.89
2018-07-20T04:43:31.444Z,96.22
2018-07-20T04:44:31.479Z,96.13
2018-07-20T04:45:31.514Z,96.13
2018-07-20T04:46:31.547Z,96.42
2018-07-20T04:47:31.584Z,97.28
2018-07-20T04:48:31.618Z,96.89
2018-07-20T04:49:31.854Z,97.28
2018-07-20T04:50:31.688Z,97.47
2018-07-20T04:51:31.724Z,97.38
2018-07-20T04:52:31.761Z,97.56
2018-07-20T04:53:31.793Z,97.28
2018-07-20T04:54:31.828Z,98.05
2018-07-20T04:55:31.863Z,96.89
2018-07-20T04:56:31.900Z,97.09
2018-07-20T04:57:31.932Z,96.70
2018-07-20T04:58:31.969Z,96.22
2018-07-20T04:59:32.027Z,96.42
2018-07-20T05:00:32.038Z,96.51
2018-07-20T05:01:32.072Z,96.27
2018-07-20T05:02:32.108Z,95.89
2018-07-20T05:03:32.143Z,96.37
2018-07-20T05:04:32.179Z,95.41
2018-07-20T05:05:32.213Z,95.17
2018-07-20T05:06:32.248Z,95.55
2018-07-20T05:07:32.283Z,95.70
2018-07-20T05:08:32.319Z,96.47
2018-07-20T05:09:32.353Z,95.89
2018-07-20T05:10:32.388Z,95.75
2018-07-20T05:11:32.474Z,96.08
2018-07-20T05:12:32.661Z,95.79
2018-07-20T05:13:32.493Z,95.89
2018-07-20T05:14:32.528Z,96.27
2018-07-20T05:15:32.566Z,96.18
2018-07-20T05:16:32.598Z,96.47
2018-07-20T05:17:32.633Z,96.47
2018-07-20T05:18:32.668Z,96.37
2018-07-20T05:19:32.703Z,96.08
2018-07-20T05:20:32.739Z,95.79
2018-07-20T05:21:32.773Z,95.50
2018-07-20T05:22:32.809Z,95.89
2018-07-20T05:23:32.844Z,95.12
2018-07-20T05:24:32.878Z,95.03
2018-07-20T05:25:32.917Z,94.83
2018-07-20T05:26:32.949Z,95.03
2018-07-20T05:27:32.984Z,94.93
2018-07-20T05:28:33.022Z,95.50
2018-07-20T05:29:33.054Z,95.50
2018-07-20T05:30:33.090Z,95.31
2018-07-20T05:31:33.125Z,96.18
2018-07-20T05:32:33.165Z,96.56
2018-07-20T05:33:33.195Z,95.41
2018-07-20T05:34:33.232Z,95.21
2018-07-20T05:35:33.266Z,95.31
2018-07-20T05:36:33.302Z,94.98
2018-07-20T05:37:33.337Z,94.31
2018-07-20T05:38:33.374Z,93.92
2018-07-20T05:39:33.410Z,93.63
2018-07-20T05:40:33.443Z,92.62
2018-07-20T05:41:33.478Z,92.33
2018-07-20T05:42:33.514Z,92.62
2018-07-20T05:43:33.751Z,91.61
2018-07-20T05:44:33.584Z,91.37
2018-07-20T05:45:33.619Z,91.37
2018-07-20T05:46:33.655Z,92.62
2018-07-20T05:47:33.693Z,92.52
2018-07-20T05:48:33.727Z,91.52
2018-07-20T05:49:33.767Z,91.22
2018-07-20T05:50:34.000Z,91.32
2018-07-20T05:51:33.834Z,90.79
2018-07-20T05:52:33.869Z,89.54
2018-07-20T05:53:33.905Z,88.87
2018-07-20T05:54:33.940Z,88.10
2018-07-20T05:55:33.976Z,88.14
2018-07-20T05:56:34.013Z,87.13
2018-07-20T05:57:34.047Z,87.37
2018-07-20T05:58:34.083Z,86.22
2018-07-20T05:59:34.119Z,85.74
2018-07-20T06:00:34.156Z,84.97
2018-07-20T06:01:34.247Z,84.77
2018-07-20T06:02:34.227Z,85.83
2018-07-20T06:03:34.281Z,85.93
2018-07-20T06:04:34.301Z,87.42
2018-07-20T06:05:34.394Z,87.33
2018-07-20T06:06:34.372Z,87.33
2018-07-20T06:07:34.410Z,87.23
2018-07-20T06:08:34.447Z,87.52
2018-07-20T06:09:34.480Z,87.23
2018-07-20T06:10:34.516Z,87.81
2018-07-20T06:11:34.555Z,87.23
2018-07-20T06:12:34.594Z,87.33
2018-07-20T06:13:34.667Z,86.79
2018-07-20T06:14:34.662Z,86.51
2018-07-20T06:15:34.700Z,84.97
2018-07-20T06:16:34.736Z,85.20
2018-07-20T06:17:34.776Z,84.72
2018-07-20T06:18:34.809Z,84.14
2018-07-20T06:19:34.845Z,83.89
2018-07-20T06:20:34.883Z,83.89
2018-07-20T06:21:34.919Z,82.93
2018-07-20T06:22:34.955Z,82.93
2018-07-20T06:23:35.047Z,81.62
2018-07-20T06:24:35.030Z,81.04
2018-07-20T06:25:35.066Z,81.24
2018-07-20T06:26:35.103Z,81.27
2018-07-20T06:27:35.143Z,80.60
2018-07-20T06:28:35.176Z,80.22
2018-07-20T06:29:35.215Z,79.93
2018-07-20T06:30:35.251Z,79.35
2018-07-20T06:31:35.289Z,79.19
2018-07-20T06:32:35.325Z,78.52
2018-07-20T06:33:35.362Z,78.33
2018-07-20T06:34:35.400Z,78.33
2018-07-20T06:35:35.437Z,78.42
2018-07-20T06:36:35.474Z,77.17
2018-07-20T06:37:35.511Z,77.11
2018-07-20T06:38:35.548Z,76.43
2018-07-20T06:39:35.586Z,76.43
2018-07-20T06:40:35.639Z,75.76
2018-07-20T06:41:35.660Z,75.47
2018-07-20T06:42:35.699Z,75.57
2018-07-20T06:43:35.792Z,74.89
2018-07-20T06:44:35.773Z,74.44
2018-07-20T06:45:35.810Z,74.06
2018-07-20T06:46:35.848Z,73.19
2018-07-20T06:47:35.887Z,72.71
2018-07-20T06:48:35.949Z,72.80
2018-07-20T06:49:35.962Z,73.00
2018-07-20T06:50:36.000Z,72.84
2018-07-20T06:51:36.038Z,73.28
2018-07-20T06:52:36.076Z,72.80
2018-07-20T06:53:36.113Z,74.73
2018-07-20T06:54:36.153Z,75.22
2018-07-20T06:55:36.190Z,73.96
2018-07-20T06:56:36.229Z,74.44
2018-07-20T06:57:36.265Z,73.96
2018-07-20T06:58:36.305Z,74.99
2018-07-20T06:59:36.343Z,75.79
2018-07-20T07:00:36.381Z,75.02
2018-07-20T07:01:36.419Z,74.83
2018-07-20T07:02:36.455Z,76.57
2018-07-20T07:03:36.495Z,75.02
2018-07-20T07:04:36.534Z,74.00
2018-07-20T07:05:36.571Z,74.00
2018-07-20T07:06:36.634Z,73.80
2018-07-20T07:07:36.670Z,74.10
2018-07-20T07:08:36.687Z,73.80
2018-07-20T07:09:36.726Z,75.54
2018-07-20T07:10:36.763Z,74.96
2018-07-20T07:11:36.802Z,73.90
2018-07-20T07:12:36.840Z,74.00
2018-07-20T07:13:36.878Z,72.88
2018-07-20T07:14:36.917Z,70.56
2018-07-20T07:15:36.957Z,70.17
2018-07-20T07:16:36.995Z,69.88
2018-07-20T07:17:37.034Z,69.30
2018-07-20T07:18:37.075Z,69.40
2018-07-20T07:19:37.110Z,70.26
2018-07-20T07:20:37.150Z,70.36
2018-07-20T07:21:37.212Z,71.36
2018-07-20T07:22:37.228Z,69.53
2018-07-20T07:23:37.284Z,69.33
2018-07-20T07:24:37.304Z,69.17
2018-07-20T07:25:37.343Z,68.59
2018-07-20T07:26:37.382Z,69.27
2018-07-20T07:27:37.421Z,69.46
2018-07-20T07:28:37.463Z,69.08
2018-07-20T07:29:37.498Z,68.88
2018-07-20T07:30:37.538Z,69.59
2018-07-20T07:31:37.577Z,69.85
2018-07-20T07:32:37.616Z,69.95
2018-07-20T07:33:37.857Z,71.20
2018-07-20T07:34:37.693Z,70.62
2018-07-20T07:35:37.733Z,72.11
2018-07-20T07:36:37.772Z,70.76
2018-07-20T07:37:37.809Z,69.98
2018-07-20T07:38:37.850Z,70.56
2018-07-20T07:39:37.890Z,71.44
2018-07-20T07:40:37.929Z,71.34
2018-07-20T07:41:37.967Z,71.04
2018-07-20T07:42:38.007Z,72.21
2018-07-20T07:43:38.047Z,71.82
2018-07-20T07:44:38.085Z,71.53
2018-07-20T07:45:38.124Z,71.56
2018-07-20T07:46:38.900Z,71.37
2018-07-20T07:47:40.827Z,70.31
2018-07-20T07:49:38.306Z,70.60
2018-07-20T07:50:38.322Z,70.50
2018-07-20T07:51:38.362Z,70.01
2018-07-20T07:52:38.402Z,70.40
2018-07-20T07:53:38.461Z,71.08
2018-07-20T07:54:38.487Z,71.28
2018-07-20T07:55:39.432Z,71.31
2018-07-20T07:56:38.560Z,69.47
2018-07-20T07:57:38.614Z,68.92
2018-07-20T07:58:38.644Z,68.34
2018-07-20T07:59:38.677Z,69.02
2018-07-20T08:00:38.718Z,68.92
2018-07-20T08:01:38.757Z,69.41
2018-07-20T08:02:38.796Z,69.50
2018-07-20T08:03:38.837Z,69.02
2018-07-20T08:04:38.876Z,67.85
2018-07-20T08:05:38.916Z,67.60
2018-07-20T08:06:38.956Z,67.31
2018-07-20T08:07:38.996Z,67.69
2018-07-20T08:08:39.036Z,67.50
2018-07-20T08:09:39.128Z,68.47
2018-07-20T08:10:39.117Z,67.40
2018-07-20T08:11:39.155Z,67.69
2018-07-20T08:12:39.196Z,67.11
2018-07-20T08:13:39.235Z,66.63
2018-07-20T08:14:39.275Z,67.21
2018-07-20T08:15:39.319Z,67.60
2018-07-20T08:16:39.357Z,66.76
2018-07-20T08:17:39.396Z,65.50
2018-07-20T08:18:39.436Z,65.53
2018-07-20T08:19:39.504Z,64.65
2018-07-20T08:20:39.517Z,65.33
2018-07-20T08:22:22.110Z,65.05
2018-07-20T08:23:22.151Z,64.65
2018-07-20T08:24:22.192Z,64.98
2018-07-20T08:25:22.230Z,64.20
2018-07-20T08:26:22.272Z,64.95
2018-07-20T08:27:22.313Z,64.69
2018-07-20T08:28:22.354Z,63.32
2018-07-20T08:29:22.398Z,63.36
2018-07-20T08:30:22.434Z,62.97
2018-07-20T08:31:22.475Z,62.19
2018-07-20T08:32:22.516Z,61.74
2018-07-20T08:33:22.860Z,62.23
2018-07-20T08:34:22.598Z,61.83
2018-07-20T08:35:22.639Z,61.15
2018-07-20T08:36:22.680Z,61.25
2018-07-20T08:37:22.728Z,60.96
2018-07-20T08:38:22.762Z,60.86
2018-07-20T08:39:22.803Z,61.25
2018-07-20T08:40:22.844Z,60.86
2018-07-20T08:41:22.884Z,61.15
2018-07-20T08:42:22.926Z,60.89
2018-07-20T08:43:22.968Z,60.50
2018-07-20T08:44:23.012Z,59.33
2018-07-20T08:45:23.051Z,59.23
2018-07-20T08:46:23.092Z,59.17
2018-07-20T08:47:23.133Z,58.10
2018-07-20T08:48:23.176Z,57.61
2018-07-20T08:49:23.418Z,57.71
2018-07-20T08:51:23.303Z,57.78
2018-07-20T08:52:23.342Z,57.87
2018-07-20T08:53:23.383Z,57.97
2018-07-20T08:54:23.425Z,59.17
2018-07-20T08:55:23.467Z,59.63
2018-07-20T08:56:23.513Z,59.43
2018-07-20T08:57:23.551Z,57.71
2018-07-20T08:58:23.594Z,57.15
2018-07-20T08:59:23.636Z,57.45
2018-07-20T09:00:23.677Z,57.06
2018-07-20T09:01:23.717Z,55.82
2018-07-20T09:02:23.761Z,55.82
2018-07-20T09:03:23.803Z,55.79
2018-07-20T09:04:23.848Z,56.57
2018-07-20T09:05:23.887Z,57.25
2018-07-20T09:06:23.930Z,57.74
2018-07-20T09:07:23.973Z,56.57
2018-07-20T09:08:24.016Z,56.60
2018-07-20T09:09:24.056Z,55.65
2018-07-20T09:10:24.099Z,54.50
2018-07-20T09:11:24.142Z,54.31
2018-07-20T09:12:24.184Z,54.77
2018-07-20T09:13:24.249Z,55.04
2018-07-20T09:14:24.274Z,55.33
2018-07-20T09:15:24.439Z,55.82
2018-07-20T09:16:24.356Z,55.72
2018-07-20T09:17:24.396Z,55.16
2018-07-20T09:18:24.438Z,54.68
2018-07-20T09:19:24.482Z,54.19
2018-07-20T09:20:24.524Z,55.52
2018-07-20T09:21:24.565Z,54.68
2018-07-20T09:22:24.609Z,54.09
2018-07-20T09:23:24.653Z,53.05
2018-07-20T09:24:24.725Z,52.48
2018-07-20T09:25:24.737Z,53.07
2018-07-20T09:26:24.780Z,51.51
2018-07-20T09:27:24.823Z,51.82
2018-07-20T09:28:24.991Z,51.73
2018-07-20T09:29:24.909Z,51.73
2018-07-20T09:30:24.952Z,51.63
2018-07-20T09:31:24.996Z,52.02
2018-07-20T09:32:25.041Z,51.14
2018-07-20T09:33:25.081Z,50.75
2018-07-20T09:34:25.126Z,50.20
2018-07-20T09:35:25.168Z,50.49
2018-07-20T09:36:25.413Z,52.19
2018-07-20T09:37:25.251Z,52.22
2018-07-20T09:38:25.499Z,52.31
2018-07-20T09:39:25.339Z,50.36
2018-07-20T09:40:25.406Z,48.85
2018-07-20T09:41:25.427Z,46.92
2018-07-20T09:42:25.471Z,46.16
2018-07-20T09:43:25.518Z,45.79
2018-07-20T09:44:25.622Z,45.97
2018-07-20T09:45:25.601Z,46.06
2018-07-20T09:46:25.645Z,45.57
2018-07-20T09:47:25.690Z,44.79
2018-07-20T09:48:25.734Z,45.08
2018-07-20T09:49:25.778Z,44.98
2018-07-20T09:50:25.821Z,44.89
2018-07-20T09:51:25.866Z,45.75
2018-07-20T09:52:25.910Z,45.86
2018-07-20T09:53:25.953Z,45.14
2018-07-20T09:54:25.998Z,44.96
2018-07-20T09:55:26.043Z,45.84
2018-07-20T09:56:26.087Z,46.50
2018-07-20T09:57:26.131Z,47.11
2018-07-20T09:58:26.192Z,47.21
2018-07-20T09:59:26.271Z,47.14
2018-07-20T10:00:26.265Z,46.75
2018-07-20T10:01:26.308Z,46.67
2018-07-20T10:02:26.352Z,45.89
2018-07-20T10:03:26.397Z,45.62
2018-07-20T10:04:26.442Z,45.13
2018-07-20T10:05:26.485Z,45.89
2018-07-20T10:06:26.530Z,46.67
2018-07-20T10:07:26.575Z,46.77
2018-07-20T10:08:26.620Z,47.33
2018-07-20T10:09:26.667Z,48.41
2018-07-20T10:10:26.708Z,47.45
2018-07-20T10:11:26.752Z,46.77
2018-07-20T10:12:26.801Z,48.14
2018-07-20T10:13:26.844Z,48.48
2018-07-20T10:14:26.886Z,47.24
2018-07-20T10:15:26.932Z,45.79
2018-07-20T10:16:26.982Z,45.01
2018-07-20T10:17:27.021Z,44.44
2018-07-20T10:18:27.066Z,45.23
2018-07-20T10:19:27.116Z,44.91
2018-07-20T10:20:27.160Z,46.67
2018-07-20T10:21:27.200Z,45.72
2018-07-20T10:22:27.245Z,43.85
2018-07-20T10:23:27.290Z,43.38
2018-07-20T10:24:27.335Z,43.29
2018-07-20T10:25:27.425Z,43.19
2018-07-20T10:26:27.428Z,42.82
2018-07-20T10:27:27.469Z,42.52
2018-07-20T10:28:27.515Z,42.15
2018-07-20T10:29:27.558Z,42.03
2018-07-20T10:30:27.604Z,42.25
2018-07-20T10:31:27.648Z,44.37
2018-07-20T10:32:27.694Z,44.48
2018-07-20T10:33:27.739Z,42.91
2018-07-20T10:34:27.784Z,40.92
2018-07-20T10:35:27.831Z,39.84
2018-07-20T10:36:27.876Z,40.43
2018-07-20T10:37:27.921Z,39.98
2018-07-20T10:38:27.969Z,39.78
2018-07-20T10:39:28.016Z,39.56
2018-07-20T10:40:28.061Z,39.03
2018-07-20T10:42:15.682Z,35.02
2018-07-20T10:43:15.803Z,33.28
2018-07-20T10:44:15.821Z,32.42
2018-07-20T10:45:15.827Z,32.03
2018-07-20T10:46:15.875Z,32.83
2018-07-20T10:47:15.925Z,31.39
2018-07-20T10:48:15.973Z,30.63
2018-07-20T10:49:16.025Z,29.96
2018-07-20T10:50:18.697Z,29.48
2018-07-20T10:51:18.749Z,29.37
2018-07-20T10:52:16.177Z,28.80
2018-07-20T10:53:16.229Z,27.54
2018-07-20T10:54:16.281Z,26.97
2018-07-20T10:55:16.331Z,26.68
2018-07-20T10:56:16.408Z,26.50
2018-07-20T10:57:16.436Z,26.31
2018-07-20T10:58:16.490Z,26.40
2018-07-20T10:59:16.543Z,26.29
2018-07-20T11:00:16.596Z,26.54
2018-07-20T11:01:16.654Z,30.13
2018-07-20T11:02:16.905Z,28.73
2018-07-20T11:03:16.757Z,29.25
2018-07-20T11:05:04.388Z,30.70
2018-07-20T11:06:04.444Z,31.26
2018-07-20T11:07:04.903Z,30.40
2018-07-20T11:08:04.588Z,30.30
2018-07-20T11:09:04.610Z,29.44
2018-07-20T11:10:04.662Z,28.64
2018-07-20T11:11:04.717Z,28.27
2018-07-20T11:12:04.772Z,28.75
2018-07-20T11:13:04.827Z,28.86
2018-07-20T11:14:04.883Z,28.66
2018-07-20T11:15:04.937Z,28.92
2018-07-20T11:16:04.993Z,28.66
2018-07-20T11:17:08.884Z,27.81
2018-07-20T11:18:05.106Z,26.54
2018-07-20T11:19:05.162Z,29.21
2018-07-20T11:20:05.221Z,28.27
2018-07-20T11:21:05.271Z,27.31
2018-07-20T11:22:05.327Z,26.75
2018-07-20T11:23:05.384Z,26.57
2018-07-20T11:24:05.438Z,28.01
2018-07-20T11:25:05.495Z,26.95
2018-07-20T11:26:08.176Z,26.38
2018-07-20T11:27:05.809Z,25.10
2018-07-20T11:28:05.700Z,25.89
2018-07-20T11:29:05.732Z,25.09
2018-07-20T11:30:05.777Z,24.38
2018-07-20T11:31:05.838Z,24.75
2018-07-20T11:32:05.889Z,25.05
2018-07-20T11:33:05.951Z,27.64
2018-07-20T11:34:06.004Z,26.76
2018-07-20T11:35:06.060Z,26.48
2018-07-20T11:36:06.118Z,25.98
2018-07-20T11:37:06.175Z,24.64
2018-07-20T11:38:06.232Z,25.81
2018-07-20T11:39:06.289Z,25.14
2018-07-20T11:40:06.355Z,24.64
2018-07-20T11:41:06.404Z,24.65
2018-07-20T11:42:06.461Z,26.13
2018-07-20T11:43:06.542Z,25.44
2018-07-20T11:44:06.576Z,26.70
2018-07-20T11:45:06.636Z,26.54
2018-07-20T11:46:06.692Z,24.68
2018-07-20T11:47:06.752Z,23.42
2018-07-20T11:48:06.806Z,23.60
2018-07-20T11:49:06.864Z,23.15
2018-07-20T11:50:06.921Z,22.45
2018-07-20T11:51:06.979Z,23.72
2018-07-20T11:52:07.038Z,23.16
2018-07-20T11:53:07.099Z,22.69
2018-07-20T11:54:07.481Z,22.28
2018-07-20T11:55:07.282Z,22.19
2018-07-20T11:56:07.268Z,21.20
2018-07-20T11:58:07.609Z,21.22
2018-07-20T12:00:07.500Z,20.83
2018-07-20T12:01:07.559Z,21.11
2018-07-20T12:02:07.614Z,22.44
2018-07-20T12:03:07.671Z,24.22
2018-07-20T12:04:07.753Z,27.25
2018-07-20T12:05:07.786Z,30.36
2018-07-20T12:09:08.038Z,28.92
2018-07-20T12:10:08.092Z,27.88
2018-07-20T12:11:08.126Z,28.85
2018-07-20T12:13:11.295Z,27.61
2018-07-20T12:17:08.467Z,25.02
2018-07-20T12:18:08.748Z,25.24
2018-07-20T12:19:09.314Z,23.57
2018-07-20T12:20:09.372Z,23.50
2018-07-20T12:21:08.720Z,22.44
2018-07-20T12:23:08.834Z,22.24
2018-07-20T12:24:08.886Z,21.75
2018-07-20T12:25:09.454Z,21.20
2018-07-20T12:26:09.205Z,21.58
2018-07-20T12:27:09.037Z,22.67
2018-07-20T12:28:09.132Z,22.33
2018-07-20T12:29:09.153Z,23.28
2018-07-20T12:30:09.210Z,22.72
2018-07-20T12:31:09.268Z,22.99
2018-07-20T12:32:09.324Z,23.88
2018-07-20T12:33:09.381Z,23.39
2018-07-20T12:34:09.440Z,21.84
2018-07-20T12:35:09.496Z,22.27
2018-07-20T12:36:09.554Z,20.76
2018-07-20T12:37:09.612Z,21.14
2018-07-20T12:38:09.670Z,23.38
2018-07-20T12:39:09.727Z,20.84
2018-07-20T12:40:09.787Z,21.44
2018-07-20T12:41:09.876Z,19.92
2018-07-20T12:42:09.902Z,20.71
2018-07-20T12:43:09.962Z,20.57
2018-07-20T12:44:10.016Z,22.42
2018-07-20T12:45:10.075Z,25.07
2018-07-20T12:46:10.133Z,22.86
2018-07-20T12:47:10.190Z,23.23
2018-07-20T12:48:10.247Z,23.26
2018-07-20T12:49:10.304Z,23.37
2018-07-20T12:50:10.425Z,23.34
2018-07-20T12:51:10.419Z,22.93
2018-07-20T12:52:10.476Z,23.59
2018-07-20T12:53:10.536Z,23.78
2018-07-20T12:54:10.590Z,24.65
2018-07-20T12:55:10.645Z,24.81
2018-07-20T12:56:11.308Z,26.56
2018-07-20T12:57:10.756Z,26.57
2018-07-20T12:58:10.813Z,26.70
2018-07-20T12:59:10.867Z,27.01
2018-07-20T13:00:10.922Z,25.02
2018-07-20T13:01:10.976Z,25.24
2018-07-20T13:02:11.033Z,24.52
2018-07-20T13:03:11.085Z,26.25
2018-07-20T13:04:11.156Z,25.93
2018-07-20T13:05:11.200Z,26.03
2018-07-20T13:06:11.248Z,26.10
2018-07-20T13:07:11.323Z,25.99
2018-07-20T13:08:11.358Z,26.78
2018-07-20T13:09:11.408Z,28.24
2018-07-20T13:10:11.482Z,28.51
2018-07-20T13:11:11.513Z,28.79
2018-07-20T13:12:11.632Z,29.66